McClure, Pennsylvania
Current Conditions -  °F | °C
As of 3:47 PM on Monday 26 Jan 2015 (Local Time) from KSEG Reporting Station
Light Snow Light Snow  
Wind Chill: -8°   Ceiling: 2500
Heat Index: -3°   Visibility: 3mi
Dew Point: -6°   Wind: 8mph
Humidity: 80%   Direction: 30°NNE
Pressure: 29.81"   Gusts: NA
Location:  40.71°N, 77.31°W
Report Text: KSEG 262047Z AUTO 03007KT 3SM -SN OVC025 M03/M06 A2981 RMK AO2 P0000
Loading
Personal Weather Stations






























Interactive Weather Map New forecast layout! Learn more

10-Day Weather Forecast

Advertisements
Track Severe Weather on mobile